Time;durP1;ratioP1;P1;durP2;ratioP2;P2;SDS_P1;SDS_P2;PMS_P1;PMS_P2;Temp;Humidity;BMP_temperature;BMP_pressure;BME280_temperature;BME280_humidity;BME280_pressure;Samples;Min_cycle;Max_cycle;Signal;HPM_P1;HPM_P2
2023/12/16 00:00:37;;;;;;;33.70;13.37;;;7.70;99.90;;;;;;5023716;28;20213;-56
2023/12/16 00:03:04;;;;;;;26.30;13.17;;;7.60;99.90;;;;;;5012672;28;20252;-55
2023/12/16 00:05:29;;;;;;;26.73;12.97;;;7.70;99.90;;;;;;5012292;28;20215;-56
2023/12/16 00:07:55;;;;;;;28.47;11.30;;;7.60;99.90;;;;;;5012506;28;20195;-61
2023/12/16 00:10:20;;;;;;;23.93;12.50;;;7.40;99.90;;;;;;5012089;28;20215;-56
2023/12/16 00:12:46;;;;;;;23.73;13.07;;;7.50;99.90;;;;;;5017305;28;20213;-54
2023/12/16 00:15:14;;;;;;;29.00;12.00;;;7.60;99.90;;;;;;5018665;28;20686;-56
2023/12/16 00:17:39;;;;;;;27.83;14.97;;;7.50;99.90;;;;;;5005525;28;20190;-56
2023/12/16 00:20:06;;;;;;;26.13;13.17;;;7.50;99.90;;;;;;5009625;28;20585;-56
2023/12/16 00:22:31;;;;;;;28.37;14.43;;;7.50;99.90;;;;;;5021539;28;20839;-56
2023/12/16 00:24:57;;;;;;;25.90;13.70;;;7.50;99.90;;;;;;5016506;28;20200;-55
2023/12/16 00:27:22;;;;;;;31.30;14.03;;;7.40;99.90;;;;;;5017600;28;20199;-55
2023/12/16 00:29:48;;;;;;;25.70;13.53;;;7.40;99.90;;;;;;5013803;28;20226;-61
2023/12/16 00:32:14;;;;;;;32.93;15.23;;;7.40;99.90;;;;;;5010812;28;20223;-63
2023/12/16 00:34:39;;;;;;;24.90;14.23;;;7.50;99.90;;;;;;5011957;28;20282;-64
2023/12/16 00:37:08;;;;;;;30.53;14.73;;;7.50;99.90;;;;;;5015056;28;20302;-62
2023/12/16 00:39:33;;;;;;;32.63;15.53;;;7.50;99.90;;;;;;5013915;28;20201;-64
2023/12/16 00:41:59;;;;;;;27.63;15.30;;;7.40;99.90;;;;;;4998014;28;20211;-56
2023/12/16 00:44:25;;;;;;;38.60;15.17;;;7.50;99.90;;;;;;5012112;28;20195;-55
2023/12/16 00:46:51;;;;;;;25.73;12.93;;;7.50;99.90;;;;;;5015058;28;20268;-56
2023/12/16 00:49:16;;;;;;;28.37;14.47;;;7.50;99.90;;;;;;5005313;28;20204;-56
2023/12/16 00:51:42;;;;;;;32.00;15.07;;;7.70;99.90;;;;;;5015602;28;20330;-56
2023/12/16 00:54:07;;;;;;;30.70;14.90;;;7.50;99.90;;;;;;5010081;28;20195;-56
2023/12/16 00:56:33;;;;;;;28.60;15.30;;;7.50;99.90;;;;;;5011234;28;20693;-55
2023/12/16 00:59:01;;;;;;;31.70;15.10;;;7.60;99.90;;;;;;5015381;28;20273;-56
2023/12/16 01:01:26;;;;;;;28.37;14.87;;;7.50;99.90;;;;;;5016240;28;20332;-54
2023/12/16 01:03:52;;;;;;;25.47;13.93;;;7.50;99.90;;;;;;5022758;28;20293;-58
2023/12/16 01:06:18;;;;;;;29.27;14.37;;;7.40;99.90;;;;;;5013356;28;20239;-62
2023/12/16 01:08:43;;;;;;;28.93;14.87;;;7.50;99.90;;;;;;5013846;28;20813;-62
2023/12/16 01:11:12;;;;;;;38.37;15.33;;;7.50;99.90;;;;;;5008995;28;20206;-55
2023/12/16 01:13:38;;;;;;;30.77;13.00;;;7.60;99.90;;;;;;5006063;28;20231;-64
2023/12/16 01:16:03;;;;;;;30.40;14.50;;;7.50;99.90;;;;;;4994756;28;20268;-54
2023/12/16 01:18:29;;;;;;;27.17;13.00;;;7.60;99.90;;;;;;4998053;28;20210;-56
2023/12/16 01:20:55;;;;;;;21.00;12.87;;;7.60;99.90;;;;;;5013729;28;20207;-56
2023/12/16 01:23:21;;;;;;;26.97;14.67;;;7.70;99.90;;;;;;4995042;28;20196;-55
2023/12/16 01:25:47;;;;;;;33.20;15.27;;;7.60;99.90;;;;;;4995322;28;20200;-55
2023/12/16 01:28:12;;;;;;;27.60;13.30;;;7.70;99.90;;;;;;5016312;28;20199;-55
2023/12/16 01:30:38;;;;;;;26.83;13.47;;;7.60;99.90;;;;;;4990698;28;20556;-55
2023/12/16 01:33:03;;;;;;;28.90;14.37;;;7.60;99.90;;;;;;5016257;28;20622;-55
2023/12/16 01:35:29;;;;;;;23.97;13.33;;;7.50;99.90;;;;;;5013280;28;20303;-55
2023/12/16 01:37:54;;;;;;;29.00;14.00;;;7.60;99.90;;;;;;5012785;28;20743;-56
2023/12/16 01:40:20;;;;;;;30.30;14.83;;;7.50;99.90;;;;;;5007432;28;20815;-57
2023/12/16 01:42:46;;;;;;;26.70;13.47;;;7.40;99.90;;;;;;5007675;28;20207;-57
2023/12/16 01:45:15;;;;;;;23.47;12.63;;;7.30;99.90;;;;;;4990720;28;20217;-56
2023/12/16 01:47:41;;;;;;;26.97;13.33;;;7.30;99.90;;;;;;5008228;28;20227;-57
2023/12/16 01:50:07;;;;;;;27.63;13.23;;;7.10;99.90;;;;;;4993785;28;20202;-57
2023/12/16 01:52:34;;;;;;;28.07;14.93;;;7.10;99.90;;;;;;4991369;28;20254;-55
2023/12/16 01:54:59;;;;;;;28.43;13.57;;;7.10;99.90;;;;;;4996205;28;20204;-58
2023/12/16 01:57:25;;;;;;;31.63;13.17;;;7.10;99.90;;;;;;4987575;28;20759;-56
2023/12/16 01:59:51;;;;;;;26.33;14.70;;;7.10;99.90;;;;;;4994918;28;20196;-55
2023/12/16 02:02:18;;;;;;;34.40;14.23;;;7.10;99.90;;;;;;4996043;28;20794;-56
2023/12/16 02:04:43;;;;;;;31.00;13.87;;;7.00;99.90;;;;;;4991010;28;20213;-55
2023/12/16 02:07:09;;;;;;;26.57;13.17;;;7.00;99.90;;;;;;4992102;28;20603;-57
2023/12/16 02:09:35;;;;;;;26.63;12.43;;;7.00;99.90;;;;;;4994951;28;20215;-56
2023/12/16 02:12:01;;;;;;;36.10;14.37;;;6.90;99.90;;;;;;4990003;28;20267;-56
2023/12/16 02:14:26;;;;;;;32.03;14.90;;;7.00;99.90;;;;;;4988162;28;20548;-57
2023/12/16 02:16:52;;;;;;;22.97;13.67;;;7.00;99.90;;;;;;4985046;28;20224;-56
2023/12/16 02:19:25;;;;;;;27.37;13.03;;;7.10;99.90;;;;;;4988614;28;20203;-55
2023/12/16 02:21:51;;;;;;;28.43;13.13;;;7.00;99.90;;;;;;4984880;28;20267;-56
2023/12/16 02:24:17;;;;;;;33.07;13.33;;;7.10;99.90;;;;;;4995487;28;20207;-55
2023/12/16 02:26:42;;;;;;;25.67;12.67;;;7.20;99.90;;;;;;4992028;28;20200;-55
2023/12/16 02:29:08;;;;;;;27.23;12.63;;;7.00;99.90;;;;;;4986336;28;20197;-64
2023/12/16 02:31:33;;;;;;;31.17;14.30;;;7.10;99.90;;;;;;4993499;28;20192;-64
2023/12/16 02:33:59;;;;;;;24.10;12.63;;;7.30;99.90;;;;;;4984303;28;20216;-64
2023/12/16 02:36:24;;;;;;;27.53;13.70;;;7.10;99.90;;;;;;4984783;28;21089;-64
2023/12/16 02:38:50;;;;;;;24.13;13.07;;;7.20;99.90;;;;;;4993831;28;20226;-63
2023/12/16 02:41:16;;;;;;;23.70;12.30;;;7.10;99.90;;;;;;4989548;28;20223;-65
2023/12/16 02:43:42;;;;;;;28.77;13.77;;;7.20;99.90;;;;;;4986706;28;20208;-57
2023/12/16 02:46:09;;;;;;;32.93;12.77;;;7.10;99.90;;;;;;4988211;28;20736;-56
2023/12/16 02:48:34;;;;;;;31.63;13.97;;;7.00;99.90;;;;;;4988749;28;20204;-56
2023/12/16 02:51:00;;;;;;;28.27;13.80;;;6.90;99.90;;;;;;4993864;28;21169;-56
2023/12/16 02:53:25;;;;;;;22.27;13.77;;;6.80;99.90;;;;;;5010354;28;20220;-56
2023/12/16 02:55:51;;;;;;;23.30;14.07;;;6.80;99.90;;;;;;5011866;28;20818;-56
2023/12/16 02:58:16;;;;;;;28.60;15.43;;;6.90;99.90;;;;;;5004936;28;20253;-55
2023/12/16 03:00:42;;;;;;;30.70;14.73;;;6.90;99.90;;;;;;5011522;28;20278;-56
2023/12/16 03:03:08;;;;;;;28.57;15.10;;;6.90;99.90;;;;;;4996923;28;20206;-56
2023/12/16 03:05:33;;;;;;;24.43;14.47;;;7.00;99.90;;;;;;4991129;28;20204;-56
2023/12/16 03:07:59;;;;;;;24.37;14.00;;;7.00;99.90;;;;;;4985974;28;20195;-54
2023/12/16 03:10:24;;;;;;;30.23;14.87;;;7.20;99.90;;;;;;5007282;28;20202;-54
2023/12/16 03:12:50;;;;;;;36.03;14.70;;;7.20;99.90;;;;;;4993970;28;20238;-56
2023/12/16 03:15:16;;;;;;;32.27;16.30;;;7.10;99.90;;;;;;5011723;28;20283;-54
2023/12/16 03:17:43;;;;;;;28.90;15.13;;;7.20;99.90;;;;;;5009600;28;20285;-55
2023/12/16 03:20:09;;;;;;;30.20;15.27;;;7.20;99.90;;;;;;5010767;28;20192;-56
2023/12/16 03:22:35;;;;;;;34.13;14.87;;;7.10;99.90;;;;;;5007339;28;20215;-53
2023/12/16 03:25:01;;;;;;;27.47;15.73;;;7.10;99.90;;;;;;5009570;28;20758;-55
2023/12/16 03:27:26;;;;;;;32.13;15.70;;;7.20;99.90;;;;;;5006826;28;20223;-56
2023/12/16 03:29:51;;;;;;;28.20;15.67;;;7.20;99.90;;;;;;5011128;28;20246;-55
2023/12/16 03:32:17;;;;;;;34.20;17.07;;;7.30;99.90;;;;;;5010169;28;20230;-55
2023/12/16 03:34:42;;;;;;;33.80;17.60;;;7.10;99.90;;;;;;5013565;28;20673;-54
2023/12/16 03:37:08;;;;;;;30.97;16.50;;;7.00;99.90;;;;;;5017265;28;20188;-55
2023/12/16 03:39:33;;;;;;;40.17;16.80;;;7.00;99.90;;;;;;4998090;28;20196;-55
2023/12/16 03:41:59;;;;;;;30.77;17.53;;;7.10;99.90;;;;;;5012548;28;20214;-56
2023/12/16 03:44:24;;;;;;;35.60;17.50;;;7.10;99.90;;;;;;5014195;28;20191;-55
2023/12/16 03:46:50;;;;;;;36.77;19.37;;;7.20;99.90;;;;;;5015272;28;20367;-56
2023/12/16 03:49:15;;;;;;;36.73;18.00;;;7.10;99.90;;;;;;5009056;28;20212;-55
2023/12/16 03:51:41;;;;;;;26.23;17.47;;;7.10;99.90;;;;;;5012576;28;20226;-54
2023/12/16 03:54:06;;;;;;;37.60;19.47;;;7.20;99.90;;;;;;4991998;28;20229;-55
2023/12/16 03:56:31;;;;;;;41.97;21.37;;;7.20;99.90;;;;;;5016996;28;20350;-54
2023/12/16 03:58:57;;;;;;;31.97;20.57;;;7.00;99.90;;;;;;5022525;28;20203;-54
2023/12/16 04:01:23;;;;;;;31.57;17.43;;;7.00;99.90;;;;;;5015339;28;20233;-55
2023/12/16 04:03:48;;;;;;;33.53;17.97;;;7.10;99.90;;;;;;5017429;28;20196;-54
2023/12/16 04:06:14;;;;;;;37.60;18.90;;;7.20;99.90;;;;;;5019817;28;20312;-55
2023/12/16 04:08:41;;;;;;;31.90;19.63;;;7.20;99.90;;;;;;5017869;28;20271;-54
2023/12/16 04:11:07;;;;;;;32.73;19.57;;;7.00;99.90;;;;;;5023001;28;20211;-54
2023/12/16 04:13:34;;;;;;;34.07;20.13;;;7.20;99.90;;;;;;5014701;28;20202;-54
2023/12/16 04:16:00;;;;;;;31.43;17.23;;;7.20;99.90;;;;;;5014590;28;20200;-53
2023/12/16 04:18:25;;;;;;;35.80;19.53;;;7.20;99.90;;;;;;4998217;28;20782;-54
2023/12/16 04:20:51;;;;;;;32.77;20.93;;;7.30;99.90;;;;;;4998457;28;20211;-54
2023/12/16 04:23:16;;;;;;;35.23;19.70;;;7.30;99.90;;;;;;5011507;28;20286;-54
2023/12/16 04:25:42;;;;;;;32.73;16.83;;;7.20;99.90;;;;;;4994228;28;20201;-54
2023/12/16 04:28:07;;;;;;;28.53;16.50;;;7.20;99.90;;;;;;5015640;28;20215;-54
2023/12/16 04:30:33;;;;;;;34.30;18.53;;;7.30;99.90;;;;;;5015832;28;20200;-54
2023/12/16 04:32:59;;;;;;;31.40;17.50;;;7.20;99.90;;;;;;5014721;28;20696;-54
2023/12/16 04:35:25;;;;;;;29.87;17.93;;;7.20;99.90;;;;;;5015759;28;20264;-54
2023/12/16 04:37:50;;;;;;;31.63;18.80;;;7.20;99.90;;;;;;5000643;28;20705;-55
2023/12/16 04:40:16;;;;;;;32.90;18.83;;;7.00;99.90;;;;;;5020849;28;20264;-55
2023/12/16 04:42:42;;;;;;;32.70;17.87;;;7.00;99.90;;;;;;5011280;28;20203;-55
2023/12/16 04:45:08;;;;;;;38.43;18.73;;;7.20;99.90;;;;;;5007444;28;20843;-55
2023/12/16 04:47:36;;;;;;;28.07;16.43;;;7.20;99.90;;;;;;5019316;28;20241;-55
2023/12/16 04:50:03;;;;;;;34.70;18.83;;;7.10;99.90;;;;;;5012143;28;20199;-53
2023/12/16 04:52:28;;;;;;;36.93;17.97;;;7.10;99.90;;;;;;5015598;28;20230;-54
2023/12/16 04:54:54;;;;;;;29.23;17.00;;;7.20;99.90;;;;;;5014277;28;20211;-54
2023/12/16 04:57:19;;;;;;;36.53;18.20;;;7.10;99.90;;;;;;5015603;28;20741;-54
2023/12/16 04:59:45;;;;;;;33.63;16.70;;;7.00;99.90;;;;;;5015589;28;20278;-54
2023/12/16 05:02:10;;;;;;;36.33;18.90;;;7.00;99.90;;;;;;5015154;28;20226;-54
2023/12/16 05:04:36;;;;;;;40.93;18.93;;;7.10;99.90;;;;;;4998913;28;20206;-54
2023/12/16 05:07:02;;;;;;;35.70;19.00;;;7.00;99.90;;;;;;5013059;28;20581;-54
2023/12/16 05:09:27;;;;;;;33.87;18.50;;;6.90;99.90;;;;;;5011203;28;20203;-53
2023/12/16 05:11:53;;;;;;;37.47;17.20;;;6.80;99.90;;;;;;5010562;28;20718;-53
2023/12/16 05:14:18;;;;;;;40.30;17.23;;;6.90;99.90;;;;;;5015521;28;20282;-53
2023/12/16 05:16:44;;;;;;;36.57;19.57;;;6.90;99.90;;;;;;5011344;28;20712;-53
2023/12/16 05:19:09;;;;;;;31.53;18.13;;;6.80;99.90;;;;;;5020871;28;20264;-54
2023/12/16 05:21:35;;;;;;;35.10;18.13;;;6.80;99.90;;;;;;5010652;28;20211;-53
2023/12/16 05:24:00;;;;;;;34.80;17.47;;;6.70;99.90;;;;;;5011136;28;20207;-54
2023/12/16 05:26:26;;;;;;;33.60;18.30;;;6.70;99.90;;;;;;5011693;28;20223;-54
2023/12/16 05:28:51;;;;;;;33.80;17.93;;;6.70;99.90;;;;;;5015426;28;20207;-54
2023/12/16 05:31:17;;;;;;;30.13;15.87;;;6.60;99.90;;;;;;5011875;28;20828;-54
2023/12/16 05:33:45;;;;;;;30.97;17.77;;;6.70;99.90;;;;;;5001914;28;20216;-54
2023/12/16 05:36:11;;;;;;;30.40;16.87;;;6.50;99.90;;;;;;5018072;28;20249;-55
2023/12/16 05:38:38;;;;;;;32.00;17.73;;;6.60;99.90;;;;;;5018906;28;20617;-54
2023/12/16 05:41:03;;;;;;;31.97;18.30;;;6.50;99.90;;;;;;4997725;28;20200;-54
2023/12/16 05:43:29;;;;;;;36.10;16.97;;;6.50;99.90;;;;;;5012429;28;20242;-54
2023/12/16 05:45:54;;;;;;;30.70;16.43;;;6.50;99.90;;;;;;5014796;28;20824;-54
2023/12/16 05:48:20;;;;;;;32.80;16.63;;;6.60;99.90;;;;;;5018603;28;20700;-54
2023/12/16 05:50:45;;;;;;;39.10;17.60;;;6.50;99.90;;;;;;5013702;28;20191;-54
2023/12/16 05:53:11;;;;;;;30.23;16.77;;;6.50;99.90;;;;;;5016899;28;20214;-54
2023/12/16 05:55:36;;;;;;;32.20;15.17;;;6.60;99.90;;;;;;5017659;28;20983;-54
2023/12/16 05:58:02;;;;;;;33.60;16.63;;;6.60;99.90;;;;;;5013975;28;20218;-54
2023/12/16 06:00:28;;;;;;;30.43;15.30;;;6.60;99.90;;;;;;5014377;28;20210;-54
2023/12/16 06:02:53;;;;;;;31.23;15.73;;;6.60;99.90;;;;;;4997512;28;20609;-54
2023/12/16 06:05:19;;;;;;;32.37;15.93;;;6.60;99.90;;;;;;4997140;28;20207;-54
2023/12/16 06:07:44;;;;;;;31.13;16.37;;;6.60;99.90;;;;;;5002959;28;20637;-54
2023/12/16 06:10:11;;;;;;;32.13;15.50;;;6.70;99.90;;;;;;5015445;28;20299;-54
2023/12/16 06:12:36;;;;;;;28.93;14.23;;;6.70;99.90;;;;;;5006356;28;20420;-54
2023/12/16 06:15:02;;;;;;;29.20;14.90;;;6.70;99.90;;;;;;4998671;28;20290;-54
2023/12/16 06:17:28;;;;;;;29.20;14.47;;;6.80;99.90;;;;;;5014033;28;20200;-54
2023/12/16 06:19:53;;;;;;;24.77;13.67;;;6.80;99.90;;;;;;5013512;28;20275;-55
2023/12/16 06:22:19;;;;;;;26.80;13.83;;;6.80;99.90;;;;;;5016985;28;20235;-70
2023/12/16 06:24:44;;;;;;;25.70;13.87;;;6.80;99.90;;;;;;5017583;28;20748;-56
2023/12/16 06:27:09;;;;;;;30.53;14.10;;;6.80;99.90;;;;;;5014553;28;20287;-55
2023/12/16 06:29:35;;;;;;;29.13;12.13;;;6.80;99.90;;;;;;5001562;28;20199;-54
2023/12/16 06:32:01;;;;;;;29.87;13.03;;;6.80;99.90;;;;;;5011669;28;20632;-55
2023/12/16 06:34:26;;;;;;;25.67;13.10;;;6.80;99.90;;;;;;5014904;28;20226;-55
2023/12/16 06:36:52;;;;;;;23.00;13.23;;;6.80;99.90;;;;;;5018099;28;20211;-55
2023/12/16 06:39:17;;;;;;;29.80;12.90;;;6.90;99.90;;;;;;5006469;28;20203;-55
2023/12/16 06:41:43;;;;;;;21.73;11.00;;;7.00;99.90;;;;;;5018011;28;20685;-55
2023/12/16 06:44:08;;;;;;;25.93;11.97;;;6.80;99.90;;;;;;5018922;28;20207;-55
2023/12/16 06:46:34;;;;;;;21.40;10.87;;;6.90;99.90;;;;;;4993853;28;20234;-53
2023/12/16 06:48:59;;;;;;;22.50;11.93;;;6.80;99.90;;;;;;5011894;28;20250;-55
2023/12/16 06:51:25;;;;;;;25.93;10.93;;;6.80;99.90;;;;;;5019259;28;20691;-54
2023/12/16 06:53:50;;;;;;;22.70;12.07;;;6.80;99.90;;;;;;5019970;28;20245;-54
2023/12/16 06:56:16;;;;;;;24.07;12.43;;;6.80;99.90;;;;;;5012873;28;20217;-55
2023/12/16 06:58:43;;;;;;;22.07;11.40;;;6.80;99.90;;;;;;5017656;28;20192;-55
2023/12/16 07:01:11;;;;;;;30.93;13.27;;;6.90;99.90;;;;;;5021435;28;20221;-54
2023/12/16 07:03:37;;;;;;;24.63;11.57;;;6.90;99.90;;;;;;5013315;28;20209;-55
2023/12/16 07:06:03;;;;;;;25.77;10.67;;;7.00;99.90;;;;;;5017212;28;20206;-54
2023/12/16 07:08:29;;;;;;;22.53;10.10;;;7.00;99.90;;;;;;5015326;28;20202;-54
2023/12/16 07:10:55;;;;;;;21.23;10.93;;;7.00;99.90;;;;;;4996269;28;20557;-55
2023/12/16 07:13:20;;;;;;;19.20;10.37;;;7.10;99.90;;;;;;5026855;28;20219;-54
2023/12/16 07:15:46;;;;;;;19.13;9.43;;;7.00;99.90;;;;;;5012782;28;20260;-54
2023/12/16 07:18:12;;;;;;;19.70;9.97;;;7.00;99.90;;;;;;4999817;28;23743;-54
2023/12/16 07:20:37;;;;;;;22.40;9.30;;;7.00;99.90;;;;;;5021918;28;20211;-53
2023/12/16 07:23:04;;;;;;;16.57;8.77;;;7.00;99.90;;;;;;5017633;28;20203;-53
2023/12/16 07:25:30;;;;;;;20.67;10.90;;;7.10;99.90;;;;;;5020722;28;20601;-54
2023/12/16 07:27:56;;;;;;;24.00;9.97;;;7.20;99.90;;;;;;5010595;28;20199;-54
2023/12/16 07:30:21;;;;;;;19.03;9.50;;;7.10;99.90;;;;;;5012737;28;20260;-54
2023/12/16 07:32:47;;;;;;;29.23;9.13;;;7.10;99.90;;;;;;5020310;28;23354;-56
2023/12/16 07:35:15;;;;;;;15.40;8.70;;;7.20;99.90;;;;;;5016145;28;20199;-55
2023/12/16 07:37:42;;;;;;;17.77;8.90;;;7.30;99.90;;;;;;5017251;28;20222;-54
2023/12/16 07:40:10;;;;;;;14.53;8.87;;;7.10;99.90;;;;;;4996055;28;20195;-54
2023/12/16 07:42:39;;;;;;;16.13;8.80;;;7.10;99.90;;;;;;5018372;28;20210;-54
2023/12/16 07:45:06;;;;;;;18.00;8.47;;;7.20;99.90;;;;;;5017913;28;20195;-59
2023/12/16 07:47:32;;;;;;;24.70;9.30;;;7.10;99.90;;;;;;5017521;28;20215;-54
2023/12/16 07:49:58;;;;;;;15.23;8.03;;;7.20;99.90;;;;;;4995406;28;20291;-53
2023/12/16 07:52:24;;;;;;;15.73;8.53;;;7.40;99.90;;;;;;5009742;28;21043;-55
2023/12/16 07:54:50;;;;;;;21.77;8.97;;;7.30;99.90;;;;;;5012510;28;20195;-54
2023/12/16 07:57:15;;;;;;;15.27;8.47;;;7.30;99.90;;;;;;5013213;28;20702;-54
2023/12/16 07:59:41;;;;;;;17.30;8.80;;;7.30;99.90;;;;;;5026179;28;20214;-55
2023/12/16 08:02:08;;;;;;;20.90;8.17;;;7.30;99.90;;;;;;5018752;28;20218;-54
2023/12/16 08:04:34;;;;;;;15.57;8.50;;;7.40;99.90;;;;;;5020628;28;20202;-55
2023/12/16 08:07:00;;;;;;;18.57;9.10;;;7.50;99.90;;;;;;5010586;28;20198;-54
2023/12/16 08:09:26;;;;;;;14.53;7.57;;;7.60;99.90;;;;;;5020769;28;20213;-54
2023/12/16 08:11:57;;;;;;;17.67;8.73;;;7.60;99.90;;;;;;5021291;28;20199;-54
2023/12/16 08:14:26;;;;;;;20.27;8.87;;;7.60;99.90;;;;;;5023161;28;20215;-54
2023/12/16 08:16:51;;;;;;;19.50;7.67;;;7.50;99.90;;;;;;5024746;28;20278;-54
2023/12/16 08:19:17;;;;;;;19.10;8.73;;;7.50;99.90;;;;;;5009880;28;20317;-54
2023/12/16 08:21:43;;;;;;;13.07;7.60;;;7.40;99.90;;;;;;5012150;28;20200;-54
2023/12/16 08:24:08;;;;;;;19.43;7.60;;;7.50;99.90;;;;;;5015001;28;20275;-53
2023/12/16 08:26:33;;;;;;;11.20;6.23;;;7.60;99.90;;;;;;5010214;28;20252;-54
2023/12/16 08:28:59;;;;;;;15.30;6.30;;;7.50;99.90;;;;;;5015543;28;20196;-54
2023/12/16 08:31:24;;;;;;;14.77;6.03;;;7.50;99.90;;;;;;5012454;28;20214;-54
2023/12/16 08:33:50;;;;;;;12.97;7.37;;;7.40;99.90;;;;;;5014247;28;20748;-54
2023/12/16 08:36:16;;;;;;;13.80;6.87;;;7.40;99.90;;;;;;5020561;28;20886;-54
2023/12/16 08:38:41;;;;;;;12.77;7.00;;;7.50;99.90;;;;;;5009276;28;20195;-55
2023/12/16 08:41:08;;;;;;;14.40;7.53;;;7.50;99.90;;;;;;5017342;28;20274;-64
2023/12/16 08:43:34;;;;;;;16.13;6.47;;;7.60;99.90;;;;;;4994769;28;20258;-55
2023/12/16 08:45:59;;;;;;;14.77;5.93;;;7.40;99.90;;;;;;5015663;28;20288;-58
2023/12/16 08:48:26;;;;;;;16.53;5.80;;;7.60;99.90;;;;;;5005211;28;20437;-54
2023/12/16 08:50:52;;;;;;;13.40;6.33;;;7.60;99.90;;;;;;5006967;28;20721;-54
2023/12/16 08:53:18;;;;;;;17.37;7.47;;;7.50;99.90;;;;;;4988608;28;20215;-58
2023/12/16 08:55:43;;;;;;;13.97;6.30;;;7.60;99.90;;;;;;5006857;28;20218;-53
2023/12/16 08:58:09;;;;;;;13.67;5.73;;;7.50;99.90;;;;;;5007145;28;20199;-53
2023/12/16 09:00:34;;;;;;;15.40;6.17;;;7.50;99.90;;;;;;4996307;28;20294;-53
2023/12/16 09:03:00;;;;;;;17.87;5.63;;;7.60;99.90;;;;;;5016462;28;20934;-55
2023/12/16 09:05:27;;;;;;;11.63;6.27;;;7.60;99.90;;;;;;5013305;28;20540;-54
2023/12/16 09:07:53;;;;;;;12.00;4.90;;;7.70;99.90;;;;;;5008697;28;20198;-54
2023/12/16 09:10:18;;;;;;;14.87;5.53;;;7.80;99.90;;;;;;5009418;28;20314;-55
2023/12/16 09:12:44;;;;;;;8.30;4.77;;;7.80;99.90;;;;;;5013897;28;20417;-55
2023/12/16 09:15:10;;;;;;;9.70;4.77;;;7.80;99.90;;;;;;5008897;28;20244;-55
2023/12/16 09:17:35;;;;;;;13.80;4.50;;;7.80;99.90;;;;;;5008322;28;20200;-55
2023/12/16 09:20:00;;;;;;;9.10;5.40;;;7.90;99.90;;;;;;5011899;28;20692;-55
2023/12/16 09:22:26;;;;;;;8.80;4.93;;;8.00;99.90;;;;;;5005227;28;20355;-55
2023/12/16 09:24:52;;;;;;;12.10;4.60;;;7.80;99.90;;;;;;5010833;28;20203;-54
2023/12/16 09:27:18;;;;;;;12.00;4.77;;;7.80;99.90;;;;;;5012317;28;20194;-55
2023/12/16 09:29:43;;;;;;;9.63;4.43;;;7.90;99.90;;;;;;5006012;28;20198;-56
2023/12/16 09:32:09;;;;;;;12.70;4.23;;;7.90;99.90;;;;;;5016934;28;20720;-58
2023/12/16 09:34:34;;;;;;;14.03;5.40;;;8.00;99.90;;;;;;4996196;28;20207;-55
2023/12/16 09:37:00;;;;;;;10.37;4.20;;;8.10;99.90;;;;;;5010268;28;20286;-57
2023/12/16 09:39:25;;;;;;;6.17;3.90;;;7.90;99.90;;;;;;5013426;28;20277;-58
2023/12/16 09:41:51;;;;;;;13.47;4.43;;;8.00;99.90;;;;;;5012212;28;20203;-55
2023/12/16 09:44:20;;;;;;;7.77;3.53;;;8.00;99.90;;;;;;5005900;28;20203;-55
2023/12/16 09:46:46;;;;;;;10.97;4.00;;;7.90;99.90;;;;;;5006055;28;20192;-54
2023/12/16 09:49:12;;;;;;;12.33;3.37;;;8.00;99.90;;;;;;4998371;28;20196;-66
2023/12/16 09:51:44;;;;;;;9.57;3.83;;;8.00;99.90;;;;;;5021830;28;20257;-66
2023/12/16 09:54:09;;;;;;;14.97;6.17;;;8.00;99.90;;;;;;5019463;28;20873;-54
2023/12/16 09:56:36;;;;;;;6.53;3.57;;;8.00;99.90;;;;;;5018430;28;20195;-56
2023/12/16 09:59:03;;;;;;;7.27;3.20;;;8.30;99.90;;;;;;5015220;28;20748;-60
2023/12/16 10:01:29;;;;;;;10.67;3.40;;;8.60;99.90;;;;;;5011313;28;20748;-56
2023/12/16 10:03:56;;;;;;;16.53;3.93;;;8.80;99.90;;;;;;5025180;28;20209;-56
2023/12/16 10:06:21;;;;;;;5.33;3.27;;;8.90;99.90;;;;;;5025295;28;20594;-62
2023/12/16 10:08:47;;;;;;;8.77;3.33;;;8.70;99.90;;;;;;5014268;28;20602;-54
2023/12/16 10:11:13;;;;;;;9.07;3.70;;;8.50;99.90;;;;;;4999468;28;20279;-58
2023/12/16 10:13:55;;;;;;;12.13;3.80;;;8.50;99.90;;;;;;5008500;28;20211;-55
2023/12/16 10:16:22;;;;;;;10.73;4.70;;;8.60;99.90;;;;;;5014207;28;20716;-56
2023/12/16 10:18:55;;;;;;;8.73;3.20;;;8.60;99.90;;;;;;5016091;28;20921;-55
2023/12/16 10:21:25;;;;;;;8.10;3.50;;;8.70;99.90;;;;;;4999515;28;20618;-56
2023/12/16 10:23:51;;;;;;;13.27;4.57;;;8.70;99.90;;;;;;4989943;28;20200;-55
2023/12/16 10:26:17;;;;;;;12.20;4.40;;;8.90;99.90;;;;;;4989157;28;20212;-55
2023/12/16 10:28:46;;;;;;;6.87;4.00;;;9.00;99.90;;;;;;5011095;28;20260;-54
2023/12/16 10:31:15;;;;;;;8.93;3.90;;;9.10;99.90;;;;;;5011517;28;20212;-55
2023/12/16 10:33:41;;;;;;;11.63;4.13;;;9.10;99.90;;;;;;5009704;28;20276;-56
2023/12/16 10:36:08;;;;;;;9.20;3.73;;;9.10;99.90;;;;;;5006980;28;20558;-57
2023/12/16 10:38:33;;;;;;;11.70;4.00;;;9.30;99.90;;;;;;5009226;28;20199;-57
2023/12/16 10:40:58;;;;;;;11.30;3.23;;;9.50;99.90;;;;;;5017251;28;20652;-55
2023/12/16 10:43:24;;;;;;;11.43;3.87;;;9.30;99.90;;;;;;5001999;28;20210;-54
2023/12/16 10:45:50;;;;;;;10.43;3.67;;;9.50;99.90;;;;;;4991964;28;20730;-56
2023/12/16 10:48:20;;;;;;;9.30;3.00;;;9.40;99.90;;;;;;5012163;28;20613;-54
2023/12/16 10:50:47;;;;;;;10.13;3.57;;;9.40;99.90;;;;;;5010251;28;20198;-53
2023/12/16 10:53:24;;;;;;;5.33;3.37;;;9.90;99.90;;;;;;4994985;28;20218;-54
2023/12/16 10:55:58;;;;;;;10.13;3.63;;;10.20;99.90;;;;;;5013862;28;20227;-54
2023/12/16 10:58:38;;;;;;;6.47;3.07;;;10.30;99.90;;;;;;4997164;28;20209;-56
2023/12/16 11:01:09;;;;;;;11.43;3.57;;;10.10;99.90;;;;;;5011363;28;20285;-55
2023/12/16 11:03:54;;;;;;;7.57;3.00;;;10.00;99.90;;;;;;5014984;28;20211;-54
2023/12/16 11:06:42;;;;;;;6.57;3.00;;;10.20;99.90;;;;;;5015548;28;20202;-54
2023/12/16 11:09:10;;;;;;;5.37;3.13;;;10.00;99.90;;;;;;5016092;28;20484;-54
2023/12/16 11:11:36;;;;;;;8.77;3.27;;;10.10;99.90;;;;;;5002456;28;20206;-54
2023/12/16 11:14:01;;;;;;;9.37;3.37;;;10.20;99.90;;;;;;5012991;28;20605;-55
2023/12/16 11:16:49;;;;;;;5.27;3.07;;;10.30;99.90;;;;;;5021624;28;20222;-63
2023/12/16 11:19:17;;;;;;;8.07;2.60;;;9.90;99.90;;;;;;5023767;28;20730;-62
2023/12/16 11:21:43;;;;;;;9.10;4.37;;;10.10;99.90;;;;;;5000653;28;20225;-61
2023/12/16 11:24:10;;;;;;;14.23;3.80;;;10.10;99.90;;;;;;4997051;28;20219;-56
2023/12/16 11:26:36;;;;;;;9.37;3.53;;;9.80;99.90;;;;;;5001812;28;20696;-54
2023/12/16 11:29:04;;;;;;;7.70;3.13;;;10.10;99.90;;;;;;5011162;28;20234;-55
2023/12/16 11:31:30;;;;;;;4.63;2.63;;;10.20;99.90;;;;;;5011506;28;20208;-55
2023/12/16 11:33:56;;;;;;;10.47;3.00;;;10.10;99.90;;;;;;4987477;28;20212;-54
2023/12/16 11:36:52;;;;;;;6.30;2.20;;;10.00;99.90;;;;;;5002223;28;20237;-54
2023/12/16 11:39:40;;;;;;;6.43;2.70;;;10.10;99.90;;;;;;5013015;28;20199;-56
2023/12/16 11:42:10;;;;;;;7.23;3.40;;;9.90;99.90;;;;;;5008904;28;20247;-61
2023/12/16 11:44:50;;;;;;;8.97;3.70;;;9.80;99.90;;;;;;5012703;28;20688;-61
2023/12/16 11:47:23;;;;;;;8.63;4.00;;;9.80;99.90;;;;;;4996249;28;20222;-55
2023/12/16 11:49:49;;;;;;;12.00;3.33;;;9.80;99.90;;;;;;5016861;28;20715;-55
2023/12/16 11:52:20;;;;;;;15.87;3.73;;;9.70;99.90;;;;;;5013742;28;20354;-55
2023/12/16 11:54:55;;;;;;;12.13;3.60;;;9.80;99.90;;;;;;5000139;28;20231;-54
2023/12/16 11:57:25;;;;;;;9.10;3.40;;;9.80;99.90;;;;;;5013893;28;20204;-64
2023/12/16 11:59:52;;;;;;;9.77;3.60;;;9.80;99.90;;;;;;5013492;28;20250;-60
2023/12/16 12:02:18;;;;;;;11.10;3.13;;;9.80;99.90;;;;;;5001454;28;20218;-56
2023/12/16 12:04:44;;;;;;;15.30;4.47;;;9.90;99.90;;;;;;4992409;28;20753;-66
2023/12/16 12:07:10;;;;;;;9.70;3.17;;;10.00;99.90;;;;;;5016150;28;20208;-54
2023/12/16 12:09:40;;;;;;;8.77;3.57;;;9.90;99.90;;;;;;5014392;28;20317;-54
2023/12/16 12:12:05;;;;;;;10.77;3.77;;;9.80;99.90;;;;;;5017396;28;20374;-54
2023/12/16 12:14:31;;;;;;;9.83;3.00;;;9.60;99.90;;;;;;5010815;28;20219;-54
2023/12/16 12:16:57;;;;;;;9.17;3.87;;;9.70;99.90;;;;;;4995051;28;20706;-65
2023/12/16 12:19:23;;;;;;;15.83;3.63;;;9.60;99.90;;;;;;5010770;28;20199;-56
2023/12/16 12:21:50;;;;;;;13.97;4.07;;;9.50;99.90;;;;;;4996685;28;20676;-57
2023/12/16 12:24:15;;;;;;;7.80;3.20;;;9.50;99.90;;;;;;5018905;28;20203;-67
2023/12/16 12:26:42;;;;;;;11.63;3.50;;;9.60;99.90;;;;;;4991630;28;20207;-66
2023/12/16 12:29:08;;;;;;;9.93;3.03;;;9.60;99.90;;;;;;4985999;28;20196;-65
2023/12/16 12:31:42;;;;;;;5.70;2.80;;;9.50;99.90;;;;;;4995022;28;20684;-57
2023/12/16 12:34:15;;;;;;;7.70;2.93;;;9.50;99.90;;;;;;5011135;28;20338;-56
2023/12/16 12:36:40;;;;;;;7.67;3.03;;;9.60;99.90;;;;;;5008620;28;20199;-56
2023/12/16 12:39:06;;;;;;;12.63;3.70;;;9.60;99.90;;;;;;5014075;28;20208;-56